Kezdőlap
METAR-TAF:

METAR-TAF

Repülőterek :

Urgench, Üzbegisztán

földrajzi szélesség: 41-35N, földrajzi hosszúság: 060-38-42E, magasság: 98 m

Jelenlegi meteorológiai megfigyelések

A jelentés 45 perccel ezelõtt készült, 19:00 UTC
Északkeleti szél 6 kt
Hőmérséklet -1°C
Páratartalom 36%
Légköri nyomás 1027 hPa
Látótávolság 10 km, vagy több
felhőtlen 1500 m magasságban, és nincs gomolyfelhõ

METAR: UTNU 161900Z 05006KT CAVOK M01/M14 Q1027 R31/CLRD70 NOSIG

Idő: 00:45 (19:45 UTC)

Előrejelzés

A jelentés 2 órával és 43 perccel ezelõtt készült, 17:02 UTC
Az előrejelzés 16-én 18 óra UTC és 17-én 18 óra UTC között érvényes
Északkeleti szél 10 kt széllökések: 20 kt
Látótávolság: 8000 m
16-én 18 óra UTC és 16-én 24 óra UTC között ideiglenes
Kelet-északkeleti szél 8 kt
Látótávolság: 3000 m
Száraz légköri homály

TAF: UTNU 161702Z 1618/1718 04010G20KT 8000 NSC TEMPO 1618/1624 06008KT 3000 HZ

Meteorológiai megfigyelések és előrejelzések több, mint 4000 repülőtéren (METAR és TAF jelentéseket).

A térképen piros és sárga pontok jelzik az elérhető meteorológiai állomásokat.

Mozgassa az egeret a pont fölött, hogy megjelenjen az állomás neve.

Azután kattintson az időjárási megfigyelések és előrejelzések megtekintéséhez.

A térkép megváltoztatása: kattintson a fekete keresztel jelölt zöld gombra ráközelítéshez, a vonallal jelölt zöld gombra távolításhoz, vagy a zöld nyilakra a szomszédos térképek eléréséhez.


METAR-TAF: